Time;durP1;ratioP1;P1;durP2;ratioP2;P2;SDS_P1;SDS_P2;PMS_P1;PMS_P2;Temp;Humidity;BMP_temperature;BMP_pressure;BME280_temperature;BME280_humidity;BME280_pressure;Samples;Min_cycle;Max_cycle;Signal;HPM_P1;HPM_P2
2023/05/17 00:00:49;;;;;;;1.63;1.52;;;;;;;;;;5076926;28;20201;-83
2023/05/17 00:03:16;;;;;;;6.65;1.50;;;;;;;;;;5076675;28;20754;-82
2023/05/17 00:05:44;;;;;;;2.05;1.95;;;;;;;;;;5077007;28;20237;-83
2023/05/17 00:08:13;;;;;;;1.70;1.40;;;;;;;;;;5076871;28;20197;-83
2023/05/17 00:10:40;;;;;;;2.00;1.50;;;;;;;;;;5076754;28;20201;-82
2023/05/17 00:13:07;;;;;;;1.90;1.50;;;;;;;;;;5076049;28;20595;-82
2023/05/17 00:15:42;;;;;;;1.35;1.25;;;;;;;;;;5076611;28;20268;-83
2023/05/17 00:18:09;;;;;;;2.83;2.13;;;;;;;;;;5076362;28;20307;-83
2023/05/17 00:20:37;;;;;;;1.95;1.70;;;;;;;;;;5076069;28;20297;-83
2023/05/17 00:23:04;;;;;;;1.73;1.45;;;;;;;;;;5076504;28;20311;-83
2023/05/17 00:25:33;;;;;;;2.88;1.65;;;;;;;;;;5075937;28;20292;-84
2023/05/17 00:28:00;;;;;;;1.67;1.42;;;;;;;;;;5076293;28;20608;-83
2023/05/17 00:30:28;;;;;;;1.40;1.30;;;;;;;;;;5075581;28;20197;-84
2023/05/17 00:32:55;;;;;;;3.83;2.00;;;;;;;;;;5075241;28;20788;-84
2023/05/17 00:35:23;;;;;;;4.93;2.00;;;;;;;;;;5075331;28;20293;-84
2023/05/17 00:37:51;;;;;;;3.00;1.50;;;;;;;;;;5075499;28;20247;-83
2023/05/17 00:40:19;;;;;;;2.13;1.92;;;;;;;;;;5075615;28;20288;-82
2023/05/17 00:42:48;;;;;;;3.53;1.77;;;;;;;;;;5075638;28;20225;-83
2023/05/17 00:45:15;;;;;;;3.22;1.52;;;;;;;;;;5075989;28;20291;-82
2023/05/17 00:47:42;;;;;;;2.75;2.10;;;;;;;;;;5075860;28;20204;-82
2023/05/17 00:50:11;;;;;;;1.75;1.42;;;;;;;;;;5075645;28;20292;-83
2023/05/17 00:52:39;;;;;;;2.42;1.67;;;;;;;;;;5075732;28;20201;-82
2023/05/17 00:55:07;;;;;;;1.55;1.45;;;;;;;;;;5074916;28;20208;-82
2023/05/17 00:57:35;;;;;;;2.10;1.33;;;;;;;;;;5075305;28;20197;-82
2023/05/17 01:00:06;;;;;;;1.70;1.42;;;;;;;;;;5075798;28;20294;-83
2023/05/17 01:02:33;;;;;;;1.98;1.77;;;;;;;;;;5075964;28;20185;-83
2023/05/17 01:05:01;;;;;;;1.80;1.60;;;;;;;;;;5088895;22;20299;-79
2023/05/17 01:07:28;;;;;;;2.92;1.70;;;;;;;;;;5076342;28;20200;-78
2023/05/17 01:09:56;;;;;;;2.25;1.40;;;;;;;;;;5056779;28;20249;-79
2023/05/17 01:12:37;;;;;;;1.30;1.20;;;;;;;;;;5055588;28;20201;-78
2023/05/17 01:15:12;;;;;;;2.03;1.55;;;;;;;;;;5055996;28;20212;-78
2023/05/17 01:17:45;;;;;;;4.10;2.83;;;;;;;;;;5072591;22;20313;-83
2023/05/17 01:20:18;;;;;;;1.67;1.45;;;;;;;;;;5034536;28;20241;-83
2023/05/17 01:22:53;;;;;;;2.50;1.40;;;;;;;;;;5034867;28;20185;-84
2023/05/17 01:25:41;;;;;;;2.47;1.70;;;;;;;;;;5015392;28;20249;-84
2023/05/17 01:28:11;;;;;;;2.60;1.80;;;;;;;;;;5018323;28;20191;-84
2023/05/17 01:30:39;;;;;;;2.35;1.70;;;;;;;;;;5034541;28;20199;-83
2023/05/17 01:33:07;;;;;;;2.42;2.22;;;;;;;;;;5035375;28;20294;-83
2023/05/17 01:35:34;;;;;;;1.95;1.75;;;;;;;;;;5035969;28;20289;-84
2023/05/17 01:38:02;;;;;;;2.80;2.08;;;;;;;;;;5034733;28;20260;-83
2023/05/17 01:40:29;;;;;;;4.13;1.83;;;;;;;;;;5035045;28;20206;-84
2023/05/17 01:43:02;;;;;;;2.72;2.10;;;;;;;;;;5035100;28;20202;-84
2023/05/17 01:45:34;;;;;;;2.67;2.47;;;;;;;;;;5034310;28;20199;-84
2023/05/17 01:48:10;;;;;;;1.88;1.77;;;;;;;;;;5035532;28;20256;-83
2023/05/17 01:50:39;;;;;;;7.53;2.35;;;;;;;;;;5034973;28;20200;-84
2023/05/17 01:53:12;;;;;;;4.65;2.30;;;;;;;;;;5034098;28;20639;-83
2023/05/17 01:55:45;;;;;;;2.25;1.40;;;;;;;;;;5031881;28;20201;-83
2023/05/17 01:58:13;;;;;;;1.65;1.55;;;;;;;;;;5014816;28;20206;-84
2023/05/17 02:00:45;;;;;;;5.70;2.47;;;;;;;;;;5015422;28;20282;-83
2023/05/17 02:03:18;;;;;;;4.45;2.67;;;;;;;;;;5015104;28;20246;-84
2023/05/17 02:05:45;;;;;;;4.90;2.25;;;;;;;;;;5015582;28;20249;-84
2023/05/17 02:08:13;;;;;;;3.90;2.30;;;;;;;;;;5014968;28;20209;-84
2023/05/17 02:10:41;;;;;;;3.75;2.30;;;;;;;;;;5015928;28;20197;-84
2023/05/17 02:13:08;;;;;;;3.08;2.00;;;;;;;;;;5015288;28;20639;-83
2023/05/17 02:15:35;;;;;;;1.88;1.67;;;;;;;;;;5015314;28;20607;-84
2023/05/17 02:18:05;;;;;;;2.47;2.28;;;;;;;;;;5014514;28;20286;-84
2023/05/17 02:20:32;;;;;;;2.90;2.38;;;;;;;;;;5014437;28;20223;-84
2023/05/17 02:23:00;;;;;;;3.05;2.13;;;;;;;;;;5014848;28;20207;-84
2023/05/17 02:25:27;;;;;;;3.28;2.05;;;;;;;;;;5016309;28;20226;-84
2023/05/17 02:27:55;;;;;;;2.90;2.30;;;;;;;;;;5014657;28;20215;-84
2023/05/17 02:30:23;;;;;;;2.60;2.15;;;;;;;;;;5015311;28;20637;-84
2023/05/17 02:32:52;;;;;;;3.75;2.83;;;;;;;;;;5015965;28;20703;-84
2023/05/17 02:35:21;;;;;;;4.18;2.20;;;;;;;;;;5016340;28;20206;-83
2023/05/17 02:37:49;;;;;;;2.40;1.80;;;;;;;;;;5015466;28;20298;-83
2023/05/17 02:40:16;;;;;;;2.83;2.30;;;;;;;;;;5014790;28;20218;-84
2023/05/17 02:42:44;;;;;;;3.45;2.70;;;;;;;;;;5014397;28;20221;-84
2023/05/17 02:45:12;;;;;;;1.88;1.77;;;;;;;;;;5014796;28;20647;-84
2023/05/17 02:47:39;;;;;;;2.28;2.08;;;;;;;;;;5014421;28;20239;-84
2023/05/17 02:50:08;;;;;;;4.80;2.90;;;;;;;;;;5017660;28;20199;-85
2023/05/17 02:52:37;;;;;;;3.25;2.17;;;;;;;;;;5018743;28;20202;-83
2023/05/17 02:55:05;;;;;;;4.45;2.90;;;;;;;;;;5018653;28;20669;-83
2023/05/17 02:57:33;;;;;;;2.90;2.58;;;;;;;;;;5018582;28;20550;-84
2023/05/17 03:00:00;;;;;;;6.95;2.95;;;;;;;;;;5018937;28;20626;-84
2023/05/17 03:02:28;;;;;;;5.18;2.63;;;;;;;;;;5018534;28;20640;-84
2023/05/17 03:04:55;;;;;;;5.18;2.90;;;;;;;;;;5019242;28;20657;-84
2023/05/17 03:07:23;;;;;;;3.55;2.65;;;;;;;;;;5019425;28;20206;-83
2023/05/17 03:09:51;;;;;;;5.25;2.95;;;;;;;;;;5018767;28;20286;-83
2023/05/17 03:12:19;;;;;;;4.30;3.30;;;;;;;;;;5020637;28;20286;-84
2023/05/17 03:14:46;;;;;;;3.03;2.67;;;;;;;;;;5019570;28;20246;-84
2023/05/17 03:17:14;;;;;;;4.65;3.30;;;;;;;;;;5019822;28;20203;-84
2023/05/17 03:19:41;;;;;;;4.10;3.00;;;;;;;;;;5019569;28;20261;-84
2023/05/17 03:22:09;;;;;;;3.75;3.13;;;;;;;;;;5019589;28;20252;-83
2023/05/17 03:24:37;;;;;;;4.40;2.80;;;;;;;;;;5019848;28;20261;-84
2023/05/17 03:27:06;;;;;;;4.72;3.42;;;;;;;;;;5019253;28;20210;-84
2023/05/17 03:29:33;;;;;;;5.50;2.97;;;;;;;;;;5019785;28;20278;-84
2023/05/17 03:32:01;;;;;;;6.45;3.08;;;;;;;;;;5020124;28;20289;-84
2023/05/17 03:34:28;;;;;;;5.07;3.17;;;;;;;;;;5019003;28;20718;-84
2023/05/17 03:36:56;;;;;;;7.95;3.40;;;;;;;;;;5019987;28;20207;-83
2023/05/17 03:39:23;;;;;;;5.38;3.20;;;;;;;;;;5020060;28;20254;-83
2023/05/17 03:41:51;;;;;;;5.90;3.15;;;;;;;;;;5019375;28;20282;-83
2023/05/17 03:44:20;;;;;;;6.25;3.63;;;;;;;;;;5020560;28;20263;-83
2023/05/17 03:46:48;;;;;;;5.18;3.95;;;;;;;;;;5020640;28;20267;-84
2023/05/17 03:49:15;;;;;;;5.53;4.10;;;;;;;;;;5020594;28;20293;-83
2023/05/17 03:51:43;;;;;;;5.75;3.90;;;;;;;;;;5019873;28;20279;-84
2023/05/17 03:54:11;;;;;;;4.75;3.35;;;;;;;;;;5020048;28;20293;-85
2023/05/17 03:56:38;;;;;;;6.00;3.35;;;;;;;;;;5019617;28;20226;-86
2023/05/17 03:59:06;;;;;;;4.57;3.30;;;;;;;;;;5018572;28;20249;-86
2023/05/17 04:01:35;;;;;;;4.00;3.60;;;;;;;;;;5017473;28;20259;-84
2023/05/17 04:04:03;;;;;;;4.72;3.05;;;;;;;;;;5019494;28;20703;-84
2023/05/17 04:06:31;;;;;;;6.32;3.80;;;;;;;;;;5017812;28;20290;-84
2023/05/17 04:08:58;;;;;;;4.47;3.25;;;;;;;;;;5017674;28;20668;-84
2023/05/17 04:11:26;;;;;;;4.25;3.63;;;;;;;;;;5017687;28;20214;-84
2023/05/17 04:13:55;;;;;;;4.10;3.13;;;;;;;;;;5019287;28;20625;-85
2023/05/17 04:16:23;;;;;;;6.15;3.88;;;;;;;;;;5018240;28;20205;-84
2023/05/17 04:18:52;;;;;;;4.75;2.83;;;;;;;;;;5018864;28;20269;-83
2023/05/17 04:21:20;;;;;;;4.78;3.22;;;;;;;;;;5018247;28;20574;-83
2023/05/17 04:23:47;;;;;;;8.48;3.90;;;;;;;;;;5017902;28;20314;-84
2023/05/17 04:26:15;;;;;;;7.82;4.32;;;;;;;;;;5013981;28;20290;-83
2023/05/17 04:28:42;;;;;;;6.80;3.85;;;;;;;;;;4999554;28;20284;-84
2023/05/17 04:31:10;;;;;;;5.40;3.38;;;;;;;;;;5001686;28;20295;-82
2023/05/17 04:33:38;;;;;;;5.47;3.30;;;;;;;;;;5002969;28;20650;-84
2023/05/17 04:36:07;;;;;;;5.68;4.03;;;;;;;;;;5000061;28;20627;-83
2023/05/17 04:38:35;;;;;;;7.50;3.22;;;;;;;;;;4998510;28;20282;-86
2023/05/17 04:41:04;;;;;;;4.55;3.80;;;;;;;;;;5000470;28;20247;-84
2023/05/17 04:43:32;;;;;;;8.10;4.13;;;;;;;;;;4999592;28;20240;-84
2023/05/17 04:46:00;;;;;;;4.82;3.30;;;;;;;;;;4998384;28;20639;-84
2023/05/17 04:48:32;;;;;;;3.42;2.70;;;;;;;;;;4998343;28;20200;-85
2023/05/17 04:51:02;;;;;;;8.75;3.67;;;;;;;;;;5003779;28;20270;-84
2023/05/17 04:53:31;;;;;;;3.95;3.38;;;;;;;;;;4998228;28;20223;-83
2023/05/17 04:55:59;;;;;;;6.00;3.65;;;;;;;;;;5004310;28;20246;-84
2023/05/17 04:58:27;;;;;;;5.43;3.70;;;;;;;;;;5019513;28;20606;-85
2023/05/17 05:00:54;;;;;;;6.07;3.10;;;;;;;;;;5017562;28;20281;-84
2023/05/17 05:03:23;;;;;;;6.93;3.33;;;;;;;;;;5016912;28;20261;-84
2023/05/17 05:05:50;;;;;;;7.38;3.78;;;;;;;;;;5016778;28;20282;-85
2023/05/17 05:08:18;;;;;;;8.50;3.55;;;;;;;;;;5016530;28;20210;-84
2023/05/17 05:10:47;;;;;;;5.05;3.20;;;;;;;;;;5017654;28;20234;-84
2023/05/17 05:13:14;;;;;;;7.38;3.28;;;;;;;;;;5017256;28;20310;-85
2023/05/17 05:15:42;;;;;;;4.78;3.70;;;;;;;;;;5018204;28;20270;-85
2023/05/17 05:18:09;;;;;;;6.55;3.58;;;;;;;;;;5016643;28;20293;-84
2023/05/17 05:20:37;;;;;;;4.93;3.50;;;;;;;;;;5017776;28;20254;-85
2023/05/17 05:23:05;;;;;;;5.75;4.03;;;;;;;;;;5018384;28;20207;-84
2023/05/17 05:25:32;;;;;;;6.97;4.43;;;;;;;;;;5017629;28;20211;-84
2023/05/17 05:28:01;;;;;;;4.50;2.85;;;;;;;;;;5017449;28;20259;-85
2023/05/17 05:30:28;;;;;;;4.22;3.40;;;;;;;;;;5016625;28;20290;-85
2023/05/17 05:32:56;;;;;;;4.55;2.80;;;;;;;;;;5017008;28;20226;-86
2023/05/17 05:35:28;;;;;;;7.32;3.33;;;;;;;;;;5016005;28;20239;-84
2023/05/17 05:37:56;;;;;;;5.68;3.22;;;;;;;;;;5017041;28;20289;-85
2023/05/17 05:40:24;;;;;;;9.02;4.07;;;;;;;;;;5016370;28;20209;-84
2023/05/17 05:42:51;;;;;;;4.30;2.85;;;;;;;;;;5016714;28;20206;-86
2023/05/17 05:45:21;;;;;;;7.13;3.17;;;;;;;;;;5017000;28;20611;-85
2023/05/17 05:47:48;;;;;;;5.93;3.83;;;;;;;;;;5017514;28;20598;-85
2023/05/17 05:50:16;;;;;;;7.20;3.80;;;;;;;;;;5016436;28;20733;-85
2023/05/17 05:52:43;;;;;;;6.88;3.28;;;;;;;;;;5016703;28;20234;-85
2023/05/17 05:55:11;;;;;;;13.63;5.07;;;;;;;;;;5015824;28;20249;-86
2023/05/17 05:57:38;;;;;;;7.00;3.42;;;;;;;;;;5017193;28;20272;-85
2023/05/17 06:00:08;;;;;;;4.28;3.50;;;;;;;;;;5016519;28;20707;-85
2023/05/17 06:02:37;;;;;;;7.55;3.42;;;;;;;;;;5016155;28;20227;-87
2023/05/17 06:05:05;;;;;;;6.22;3.72;;;;;;;;;;5016146;28;20270;-87
2023/05/17 06:07:33;;;;;;;5.60;3.35;;;;;;;;;;5016601;28;20209;-85
2023/05/17 06:10:00;;;;;;;4.72;3.08;;;;;;;;;;5016428;28;20294;-86
2023/05/17 06:12:28;;;;;;;4.90;2.45;;;;;;;;;;5016828;28;20297;-86
2023/05/17 06:14:55;;;;;;;5.53;2.88;;;;;;;;;;5017471;28;20306;-84
2023/05/17 06:17:23;;;;;;;6.68;2.88;;;;;;;;;;5017606;28;20589;-83
2023/05/17 06:19:51;;;;;;;6.75;3.15;;;;;;;;;;5018072;28;20285;-85
2023/05/17 06:22:19;;;;;;;10.13;2.88;;;;;;;;;;5014608;28;20313;-86
2023/05/17 06:24:46;;;;;;;6.32;3.25;;;;;;;;;;5013969;28;20250;-88
2023/05/17 06:27:14;;;;;;;7.85;3.80;;;;;;;;;;5015182;28;20239;-86
2023/05/17 06:29:41;;;;;;;4.07;2.55;;;;;;;;;;5014676;28;20688;-86
2023/05/17 06:32:09;;;;;;;10.27;2.97;;;;;;;;;;5015491;28;20230;-86
2023/05/17 06:34:38;;;;;;;7.75;3.55;;;;;;;;;;5014803;28;20222;-86
2023/05/17 06:37:07;;;;;;;6.15;2.80;;;;;;;;;;5015700;28;20688;-83
2023/05/17 06:39:35;;;;;;;7.70;2.35;;;;;;;;;;5017810;28;20242;-85
2023/05/17 06:42:02;;;;;;;5.28;2.83;;;;;;;;;;5015745;28;20310;-86
2023/05/17 06:44:30;;;;;;;5.13;2.53;;;;;;;;;;5015102;28;20254;-86
2023/05/17 06:46:59;;;;;;;6.80;3.20;;;;;;;;;;5014957;28;20683;-86
2023/05/17 06:49:27;;;;;;;4.10;2.95;;;;;;;;;;5014509;28;20289;-86
2023/05/17 06:52:01;;;;;;;4.32;2.60;;;;;;;;;;5014785;28;20203;-86
2023/05/17 06:54:30;;;;;;;5.35;3.30;;;;;;;;;;5014769;28;20227;-85
2023/05/17 06:57:00;;;;;;;7.20;2.97;;;;;;;;;;5015206;28;20206;-85
2023/05/17 06:59:28;;;;;;;6.13;2.50;;;;;;;;;;5014466;28;20210;-86
2023/05/17 07:01:55;;;;;;;5.78;2.03;;;;;;;;;;5016336;28;20226;-85
2023/05/17 07:04:23;;;;;;;6.60;2.42;;;;;;;;;;5050092;22;20237;-78
2023/05/17 07:06:50;;;;;;;4.85;2.72;;;;;;;;;;5070478;28;20203;-78
2023/05/17 07:09:20;;;;;;;8.45;2.35;;;;;;;;;;5071685;28;20292;-79
2023/05/17 07:11:49;;;;;;;16.13;5.20;;;;;;;;;;5072035;28;20193;-79
2023/05/17 07:14:16;;;;;;;6.20;2.53;;;;;;;;;;5072383;28;20288;-78
2023/05/17 07:16:43;;;;;;;3.83;2.15;;;;;;;;;;5071933;28;20687;-78
2023/05/17 07:19:11;;;;;;;2.30;2.08;;;;;;;;;;5066552;28;20226;-83
2023/05/17 07:21:39;;;;;;;4.68;2.45;;;;;;;;;;5054410;28;20289;-79
2023/05/17 07:24:06;;;;;;;3.80;3.08;;;;;;;;;;5056447;28;20296;-79
2023/05/17 07:26:34;;;;;;;3.65;1.90;;;;;;;;;;5053662;28;20210;-79
2023/05/17 07:29:03;;;;;;;4.68;1.98;;;;;;;;;;5061571;28;20229;-78
2023/05/17 07:31:30;;;;;;;6.32;2.22;;;;;;;;;;5073389;28;20204;-79
2023/05/17 07:33:57;;;;;;;5.13;2.40;;;;;;;;;;5075324;28;20197;-78
2023/05/17 07:36:26;;;;;;;5.15;2.60;;;;;;;;;;5077028;28;20205;-79
2023/05/17 07:38:53;;;;;;;5.93;3.17;;;;;;;;;;5078605;28;20586;-79
2023/05/17 07:41:22;;;;;;;5.05;2.67;;;;;;;;;;5076990;28;20207;-79
2023/05/17 07:43:49;;;;;;;5.60;2.50;;;;;;;;;;5078945;28;20217;-80
2023/05/17 07:46:18;;;;;;;5.25;2.30;;;;;;;;;;5079018;28;20209;-79
2023/05/17 07:48:46;;;;;;;5.18;2.53;;;;;;;;;;5078873;28;20220;-79
2023/05/17 07:51:13;;;;;;;7.15;3.50;;;;;;;;;;5078395;28;20564;-79
2023/05/17 07:53:41;;;;;;;7.25;2.22;;;;;;;;;;5078077;28;20261;-79
2023/05/17 07:56:08;;;;;;;4.88;2.45;;;;;;;;;;5077739;28;20648;-79
2023/05/17 07:58:36;;;;;;;8.15;2.70;;;;;;;;;;5078756;28;20332;-79
2023/05/17 08:01:03;;;;;;;4.57;1.92;;;;;;;;;;5077572;28;20201;-79
2023/05/17 08:03:32;;;;;;;8.02;2.25;;;;;;;;;;5076850;28;20216;-80
2023/05/17 08:05:59;;;;;;;4.45;2.42;;;;;;;;;;5076617;28;20640;-80
2023/05/17 08:08:27;;;;;;;6.50;2.00;;;;;;;;;;5075571;28;20316;-80
2023/05/17 08:10:54;;;;;;;4.07;2.22;;;;;;;;;;5075637;28;20207;-81
2023/05/17 08:13:22;;;;;;;3.83;2.45;;;;;;;;;;5077232;28;20305;-80
2023/05/17 08:15:50;;;;;;;3.53;1.90;;;;;;;;;;5074941;28;20201;-81
2023/05/17 08:18:18;;;;;;;5.32;3.22;;;;;;;;;;5075551;28;20274;-80
2023/05/17 08:20:48;;;;;;;5.13;2.25;;;;;;;;;;5077902;28;20205;-80
2023/05/17 08:23:16;;;;;;;2.83;2.00;;;;;;;;;;5078708;28;20217;-80
2023/05/17 08:25:43;;;;;;;5.28;2.10;;;;;;;;;;5077814;28;20291;-79
2023/05/17 08:28:11;;;;;;;4.63;2.40;;;;;;;;;;5079505;28;20831;-79
2023/05/17 08:30:38;;;;;;;3.97;2.05;;;;;;;;;;5077323;28;20212;-80
2023/05/17 08:33:06;;;;;;;5.18;1.92;;;;;;;;;;5077926;28;20617;-80
2023/05/17 08:35:33;;;;;;;3.50;1.58;;;;;;;;;;5078895;28;20247;-79
2023/05/17 08:38:02;;;;;;;6.78;2.25;;;;;;;;;;5074938;28;20613;-79
2023/05/17 08:40:30;;;;;;;4.03;1.85;;;;;;;;;;5075834;28;20197;-80
2023/05/17 08:42:57;;;;;;;2.38;1.70;;;;;;;;;;5076692;28;20244;-79
2023/05/17 08:45:27;;;;;;;12.68;2.40;;;;;;;;;;5078889;28;20289;-78
2023/05/17 08:47:55;;;;;;;6.82;1.85;;;;;;;;;;5076478;28;20232;-79
2023/05/17 08:50:24;;;;;;;6.38;2.40;;;;;;;;;;5083133;28;20201;-77
2023/05/17 08:52:52;;;;;;;5.40;2.05;;;;;;;;;;5077254;28;20228;-77
2023/05/17 08:55:20;;;;;;;6.22;2.00;;;;;;;;;;5088265;28;20239;-78
2023/05/17 08:57:48;;;;;;;9.80;2.70;;;;;;;;;;5090006;28;20255;-79
2023/05/17 09:00:19;;;;;;;5.15;2.17;;;;;;;;;;5088209;28;20201;-79
2023/05/17 09:02:47;;;;;;;7.07;2.20;;;;;;;;;;5083789;28;20220;-79
2023/05/17 09:05:16;;;;;;;5.63;2.33;;;;;;;;;;5079791;28;20307;-79
2023/05/17 09:07:44;;;;;;;3.10;2.05;;;;;;;;;;5068909;28;20694;-76
2023/05/17 09:10:12;;;;;;;5.25;2.15;;;;;;;;;;5076500;28;20586;-79
2023/05/17 09:12:41;;;;;;;4.47;2.17;;;;;;;;;;5079528;28;20205;-79
2023/05/17 09:15:16;;;;;;;6.38;2.15;;;;;;;;;;5078880;28;20205;-79
2023/05/17 09:17:50;;;;;;;4.25;2.00;;;;;;;;;;5079223;28;20224;-79
2023/05/17 09:20:24;;;;;;;6.22;2.08;;;;;;;;;;5077194;28;20212;-79
2023/05/17 09:22:51;;;;;;;4.25;2.03;;;;;;;;;;5078484;28;20205;-80
2023/05/17 09:25:20;;;;;;;4.07;2.38;;;;;;;;;;5078325;28;20276;-79
2023/05/17 09:27:51;;;;;;;2.75;1.33;;;;;;;;;;5078840;28;20228;-79
2023/05/17 09:30:19;;;;;;;6.20;2.35;;;;;;;;;;5079318;28;20215;-79
2023/05/17 09:32:47;;;;;;;3.75;2.17;;;;;;;;;;5078129;28;20205;-80
2023/05/17 09:35:14;;;;;;;2.30;1.40;;;;;;;;;;5078565;28;20205;-83
2023/05/17 09:37:45;;;;;;;3.78;2.67;;;;;;;;;;5077787;28;20239;-80
2023/05/17 09:40:24;;;;;;;3.40;2.00;;;;;;;;;;5077010;28;20208;-81
2023/05/17 09:42:52;;;;;;;2.40;1.55;;;;;;;;;;5075277;28;20209;-80
2023/05/17 09:45:23;;;;;;;1.95;1.70;;;;;;;;;;5073996;28;20311;-81
2023/05/17 09:47:52;;;;;;;2.30;1.73;;;;;;;;;;5073904;28;20234;-79
2023/05/17 09:50:21;;;;;;;2.88;2.13;;;;;;;;;;5074649;28;20286;-80
2023/05/17 09:52:48;;;;;;;2.65;1.80;;;;;;;;;;5074360;28;20203;-80
2023/05/17 09:55:17;;;;;;;5.85;3.45;;;;;;;;;;5076365;28;20296;-81
2023/05/17 09:57:45;;;;;;;6.53;2.35;;;;;;;;;;5075127;28;20286;-81
2023/05/17 10:00:18;;;;;;;3.85;2.13;;;;;;;;;;5076326;28;20342;-80
2023/05/17 10:02:48;;;;;;;3.70;1.80;;;;;;;;;;5075603;28;20207;-80
2023/05/17 10:05:18;;;;;;;5.88;2.08;;;;;;;;;;5075561;28;20587;-80
2023/05/17 10:07:47;;;;;;;6.35;2.05;;;;;;;;;;5074454;28;20228;-80
2023/05/17 10:10:16;;;;;;;5.38;2.42;;;;;;;;;;5074795;28;20204;-80
2023/05/17 10:12:45;;;;;;;5.00;2.25;;;;;;;;;;5074559;28;20207;-80
2023/05/17 10:15:16;;;;;;;5.85;2.10;;;;;;;;;;5074360;28;20405;-80
2023/05/17 10:17:45;;;;;;;5.97;2.20;;;;;;;;;;5074574;28;20225;-80
2023/05/17 10:20:16;;;;;;;4.85;1.88;;;;;;;;;;5072915;28;20223;-76
2023/05/17 10:22:43;;;;;;;8.60;2.33;;;;;;;;;;5074056;28;20567;-78
2023/05/17 10:25:11;;;;;;;3.50;2.38;;;;;;;;;;5073776;28;20227;-78
2023/05/17 10:27:39;;;;;;;6.13;2.08;;;;;;;;;;5073365;28;20229;-78
2023/05/17 10:30:09;;;;;;;2.78;1.88;;;;;;;;;;5073974;28;20201;-77
2023/05/17 10:32:37;;;;;;;4.72;1.70;;;;;;;;;;5072711;28;20691;-78
2023/05/17 10:35:08;;;;;;;4.72;1.90;;;;;;;;;;5072287;28;20200;-78
2023/05/17 10:37:35;;;;;;;4.70;1.63;;;;;;;;;;5072391;28;20267;-77
2023/05/17 10:40:03;;;;;;;8.77;2.30;;;;;;;;;;5072174;28;20223;-78
2023/05/17 10:42:31;;;;;;;3.38;1.40;;;;;;;;;;5072401;28;20209;-78
2023/05/17 10:45:01;;;;;;;2.58;1.80;;;;;;;;;;5071986;28;20223;-78
2023/05/17 10:47:32;;;;;;;2.28;1.70;;;;;;;;;;5073043;28;20295;-78
2023/05/17 10:50:02;;;;;;;2.88;1.80;;;;;;;;;;5072204;28;20301;-81
2023/05/17 10:52:29;;;;;;;3.33;1.63;;;;;;;;;;5073144;28;20307;-81
2023/05/17 10:55:00;;;;;;;3.58;1.85;;;;;;;;;;5071781;28;20197;-81
2023/05/17 10:57:36;;;;;;;5.53;1.90;;;;;;;;;;5073152;28;20221;-80
2023/05/17 11:00:06;;;;;;;2.67;1.45;;;;;;;;;;5072338;28;20211;-80
2023/05/17 11:02:35;;;;;;;3.13;1.80;;;;;;;;;;5073719;28;20201;-80
2023/05/17 11:05:03;;;;;;;5.05;1.50;;;;;;;;;;5072377;28;20616;-81
2023/05/17 11:07:36;;;;;;;2.92;1.50;;;;;;;;;;5072755;28;20261;-80
2023/05/17 11:10:09;;;;;;;3.33;1.77;;;;;;;;;;5073886;28;20669;-80
2023/05/17 11:12:40;;;;;;;3.35;1.98;;;;;;;;;;5076651;28;20429;-80
2023/05/17 11:15:10;;;;;;;2.40;1.45;;;;;;;;;;5075994;28;20193;-81
2023/05/17 11:17:50;;;;;;;7.80;5.13;;;;;;;;;;5076112;28;20221;-81
2023/05/17 11:20:37;;;;;;;4.75;3.38;;;;;;;;;;5076266;28;20193;-77
2023/05/17 11:23:06;;;;;;;4.72;1.90;;;;;;;;;;5076882;28;20207;-78
2023/05/17 11:25:36;;;;;;;4.28;2.30;;;;;;;;;;5076130;28;20221;-78
2023/05/17 11:28:09;;;;;;;4.95;1.85;;;;;;;;;;5075729;28;20307;-78
2023/05/17 11:30:46;;;;;;;2.83;1.98;;;;;;;;;;5076644;28;20283;-78
2023/05/17 11:33:14;;;;;;;4.72;1.80;;;;;;;;;;5077475;28;20565;-77
2023/05/17 11:35:43;;;;;;;8.23;2.60;;;;;;;;;;5076882;28;20304;-78
2023/05/17 11:38:15;;;;;;;4.75;2.45;;;;;;;;;;5077583;28;20268;-79
2023/05/17 11:40:43;;;;;;;2.88;1.88;;;;;;;;;;5076962;28;20201;-78
2023/05/17 11:43:13;;;;;;;2.15;1.23;;;;;;;;;;5076267;28;20206;-77
2023/05/17 11:45:44;;;;;;;6.82;2.05;;;;;;;;;;5076617;28;20255;-78
2023/05/17 11:48:13;;;;;;;3.10;1.52;;;;;;;;;;5076831;28;20274;-78
2023/05/17 11:50:42;;;;;;;2.13;1.52;;;;;;;;;;5076902;28;20197;-79
2023/05/17 11:53:10;;;;;;;3.88;1.60;;;;;;;;;;5076175;28;20290;-79
2023/05/17 11:55:42;;;;;;;5.05;1.60;;;;;;;;;;5076029;28;20661;-77
2023/05/17 11:58:11;;;;;;;3.15;1.33;;;;;;;;;;5076458;28;20223;-78
2023/05/17 12:00:39;;;;;;;3.45;1.80;;;;;;;;;;5076920;28;20272;-78
2023/05/17 12:03:18;;;;;;;3.50;1.42;;;;;;;;;;5077660;28;20201;-79
2023/05/17 12:05:50;;;;;;;4.35;1.40;;;;;;;;;;5075023;28;20311;-81
2023/05/17 12:08:19;;;;;;;3.85;1.42;;;;;;;;;;5075182;28;20220;-78
2023/05/17 12:10:50;;;;;;;2.47;1.80;;;;;;;;;;5076777;28;20201;-79
2023/05/17 12:13:18;;;;;;;2.63;1.50;;;;;;;;;;5075005;28;20205;-80
2023/05/17 12:15:48;;;;;;;1.92;1.15;;;;;;;;;;5076551;28;20197;-78
2023/05/17 12:18:16;;;;;;;5.15;1.75;;;;;;;;;;5075251;28;20311;-78
2023/05/17 12:20:58;;;;;;;2.05;1.60;;;;;;;;;;5075063;28;20287;-78
2023/05/17 12:23:31;;;;;;;3.95;1.80;;;;;;;;;;5075375;28;20243;-78
2023/05/17 12:26:10;;;;;;;1.98;1.52;;;;;;;;;;5075919;28;20255;-78
2023/05/17 12:28:41;;;;;;;2.80;1.45;;;;;;;;;;5074883;28;20224;-79
2023/05/17 12:31:11;;;;;;;3.35;1.40;;;;;;;;;;5074592;28;20204;-78
2023/05/17 12:33:41;;;;;;;3.60;1.70;;;;;;;;;;5075685;28;20227;-79
2023/05/17 12:36:11;;;;;;;3.10;1.83;;;;;;;;;;5074813;28;20288;-78
2023/05/17 12:38:41;;;;;;;1.70;1.60;;;;;;;;;;5075788;28;20213;-78
2023/05/17 12:41:11;;;;;;;4.30;1.45;;;;;;;;;;5076292;28;20201;-79
2023/05/17 12:43:39;;;;;;;3.05;1.65;;;;;;;;;;5075659;28;20262;-79
2023/05/17 12:46:08;;;;;;;3.40;1.83;;;;;;;;;;5076150;28;20217;-78
2023/05/17 12:48:36;;;;;;;1.83;1.40;;;;;;;;;;5077745;28;20227;-78
2023/05/17 12:51:09;;;;;;;3.20;1.20;;;;;;;;;;5079136;28;20288;-79
2023/05/17 12:53:39;;;;;;;3.22;1.48;;;;;;;;;;5077668;28;20690;-78
2023/05/17 12:56:07;;;;;;;4.18;1.70;;;;;;;;;;5075078;28;20213;-79
2023/05/17 12:58:34;;;;;;;1.88;1.30;;;;;;;;;;5074766;28;20609;-79
2023/05/17 13:01:05;;;;;;;3.20;1.35;;;;;;;;;;5077077;28;20747;-79
2023/05/17 13:03:33;;;;;;;2.67;1.30;;;;;;;;;;5078409;28;20235;-79
2023/05/17 13:06:04;;;;;;;2.13;1.60;;;;;;;;;;5077907;28;20231;-80
2023/05/17 13:08:33;;;;;;;2.83;1.48;;;;;;;;;;5079554;28;20248;-79
2023/05/17 13:11:08;;;;;;;4.55;1.58;;;;;;;;;;5079690;28;20588;-79
2023/05/17 13:13:36;;;;;;;2.92;1.45;;;;;;;;;;5075391;28;20201;-79
2023/05/17 13:16:05;;;;;;;1.88;1.33;;;;;;;;;;5074251;28;20209;-79
2023/05/17 13:18:46;;;;;;;7.40;5.50;;;;;;;;;;5091180;22;20221;-83
2023/05/17 13:21:13;;;;;;;5.32;3.50;;;;;;;;;;5055105;28;20887;-83
2023/05/17 13:23:45;;;;;;;6.20;2.50;;;;;;;;;;5054908;28;20581;-82
2023/05/17 13:26:13;;;;;;;2.70;1.60;;;;;;;;;;5055133;28;20244;-83
2023/05/17 13:28:41;;;;;;;2.95;1.58;;;;;;;;;;5055240;28;20208;-83
2023/05/17 13:31:08;;;;;;;2.35;1.73;;;;;;;;;;5054636;28;20198;-83
2023/05/17 13:33:36;;;;;;;3.88;1.60;;;;;;;;;;5053705;28;20678;-83
2023/05/17 13:36:05;;;;;;;4.72;2.25;;;;;;;;;;5054852;28;20561;-83
2023/05/17 13:38:32;;;;;;;3.97;3.00;;;;;;;;;;5055551;28;20292;-82
2023/05/17 13:41:02;;;;;;;7.20;2.22;;;;;;;;;;5054355;28;20625;-81
2023/05/17 13:43:29;;;;;;;2.15;1.90;;;;;;;;;;5053626;28;20224;-85
2023/05/17 13:45:57;;;;;;;2.33;1.45;;;;;;;;;;5054102;28;20232;-84
2023/05/17 13:48:25;;;;;;;3.25;1.95;;;;;;;;;;5050672;28;20240;-84
2023/05/17 13:50:53;;;;;;;2.97;1.48;;;;;;;;;;5018289;28;20214;-81
2023/05/17 13:53:20;;;;;;;3.13;1.73;;;;;;;;;;5015305;28;20203;-85
2023/05/17 13:55:48;;;;;;;3.92;1.70;;;;;;;;;;5015327;28;20627;-84
2023/05/17 13:58:17;;;;;;;16.40;2.03;;;;;;;;;;5014776;28;20302;-84
2023/05/17 14:00:44;;;;;;;1.98;1.70;;;;;;;;;;5014164;28;20231;-83
2023/05/17 14:03:13;;;;;;;3.80;1.63;;;;;;;;;;5014843;28;20229;-85
2023/05/17 14:05:41;;;;;;;3.05;1.42;;;;;;;;;;5013889;28;20223;-83
2023/05/17 14:08:08;;;;;;;4.25;2.35;;;;;;;;;;5013496;28;20205;-83
2023/05/17 14:10:36;;;;;;;3.03;1.55;;;;;;;;;;5014361;28;20211;-85
2023/05/17 14:13:04;;;;;;;2.83;2.13;;;;;;;;;;5014361;28;20229;-82
2023/05/17 14:15:36;;;;;;;2.33;1.60;;;;;;;;;;5013845;28;20254;-84
2023/05/17 14:18:04;;;;;;;4.45;1.80;;;;;;;;;;5014915;28;20302;-85
2023/05/17 14:20:32;;;;;;;3.90;2.40;;;;;;;;;;5027491;28;20199;-84
2023/05/17 14:22:59;;;;;;;1.55;1.42;;;;;;;;;;5034801;28;20212;-82
2023/05/17 14:25:27;;;;;;;2.15;1.38;;;;;;;;;;5034036;28;20326;-85
2023/05/17 14:27:54;;;;;;;3.28;1.85;;;;;;;;;;5033644;28;20293;-85
2023/05/17 14:30:22;;;;;;;5.25;1.92;;;;;;;;;;5033831;28;20210;-84
2023/05/17 14:32:51;;;;;;;4.28;1.63;;;;;;;;;;5034599;28;20710;-83
2023/05/17 14:35:19;;;;;;;3.60;1.50;;;;;;;;;;5034010;28;20754;-82
2023/05/17 14:37:46;;;;;;;2.92;1.90;;;;;;;;;;5033537;28;20222;-83
2023/05/17 14:40:14;;;;;;;5.03;1.77;;;;;;;;;;5033995;28;20198;-82
2023/05/17 14:42:42;;;;;;;3.95;2.53;;;;;;;;;;5034636;28;20286;-83
2023/05/17 14:45:10;;;;;;;5.32;1.85;;;;;;;;;;5036804;28;20230;-82
2023/05/17 14:47:37;;;;;;;3.13;1.77;;;;;;;;;;5059364;28;20221;-83
2023/05/17 14:50:07;;;;;;;4.25;1.55;;;;;;;;;;5049127;28;20238;-82
2023/05/17 14:52:35;;;;;;;3.08;1.95;;;;;;;;;;5038623;28;20570;-84